Sweeney, South Dakota
Current Conditions -  °F | °C
As of 11:53 PM on Saturday 22 Nov 2014 (Local Time) from KPIR Reporting Station
Overcast Overcast  
Wind Chill: 31°   Ceiling: 10000
Heat Index: 36°   Visibility: 10mi
Dew Point: 31°   Wind: 6mph
Humidity: 82%   Direction: 250°WSW
Pressure: 29.41"   Gusts: NA
Location:  43.909°N, 100.128°W
Report Text: KPIR 230553Z AUTO 25005KT 10SM BKN100 OVC120 02/M01 A2941 RMK AO2 SLP970 T00221006 10056 20017 400781089 53003
Loading
Personal Weather Stations






























Interactive Weather Map New forecast layout! Learn more

10-Day Weather Forecast

Advertisements
Track Severe Weather on mobile